Colerain, OH (43916)

1:44 PM EDT on September 05, 2015 (GMT -0400)
Crawford Heights | | Change Station
CLOSE
Current Station
Personal Weather Station
Location: Martins Ferry, OH
Elevation: 1109 ft
Nearby Weather Stations

Elev 1109 ft 40.09 °N, 80.75 °W | Updated 13 minutes ago

Clear
Clear
92.5 °F
Feels Like 103 °F
N
2.7
Wind Variable Wind from SSE

Today
High -- | Low -- °F
--% Chance of Precip.
Yesterday
High -- | Low -- °F
Precip. -- in
6:54 AM 7:48 PM
Waning Gibbous, 47% visible
Pressure 30.18 in
Visibility 10.0 miles
Clouds Few 3300 ft
Heat Index 103 °F
Dew Point 74 °F
Humidity 55%
Rainfall 0.00 in
Snow Depth Not available.
UV 8 out of 12
Pollen 10.20 out of 12
Air Quality Not available.
Flu Activity Not available.
METAR KHLG 051653Z 21006KT 10SM FEW033 28/19 A3020 RMK AO2 SLP219 T02830194
Pressure 30.18 in
Visibility 10.0 miles
Clouds Few 3300 ft
Heat Index 103 °F
Dew Point 74 °F
Humidity 55%
Rainfall 0.00 in
Snow Depth Not available.
UV 8 out of 12
Pollen 10.20 out of 12
Air Quality Not available.
Flu Activity Not available.
METAR KHLG 051653Z 21006KT 10SM FEW033 28/19 A3020 RMK AO2 SLP219 T02830194

10-Day Weather Forecast

×

Almanac

Astronomy

Sep. 05, 2015 Rise Set
Actual Time
Civil Twilight
Nautical Twilight
Astronomical Twilight
Moon
Length of Visible Light
Length of Day
Tomorrow will be .
, % of the Moon is Illuminated

Today's Extremes

State Highs State Lows

Community

WunderPhotos

Upload Photos

1,852,508 photos uploaded!

WunderBlogs® & News

Nearby

Air Quality

  Air Quality AQ Index Pollutant
Not available.

Snow Depth

Station Depth Elevation

Earthquake Activity

City Distance Mag. Time & Date
Minimum magnitude displayed is 2.5.

Coastal Water Temperatures

Place Temperature

Stations

Nearby Weather Stations

Station Location Temp. Windchill Dew Point Humidity Wind Precip. Elev Updated Type